sensor_id;sensor_type;location;lat;lon;timestamp;temperature;humidity
6293;DHT22;3179;54.350;10.102;2023-07-24T00:00:33;18.40;99.90
6293;DHT22;3179;54.350;10.102;2023-07-24T00:03:01;18.30;99.90
6293;DHT22;3179;54.350;10.102;2023-07-24T00:05:27;18.30;99.90
6293;DHT22;3179;54.350;10.102;2023-07-24T00:07:55;18.30;99.90
6293;DHT22;3179;54.350;10.102;2023-07-24T00:10:22;18.40;99.90
6293;DHT22;3179;54.350;10.102;2023-07-24T00:12:49;18.30;99.90
6293;DHT22;3179;54.350;10.102;2023-07-24T00:15:16;18.30;99.90
6293;DHT22;3179;54.350;10.102;2023-07-24T00:17:43;18.30;99.90
6293;DHT22;3179;54.350;10.102;2023-07-24T00:20:10;18.30;99.90
6293;DHT22;3179;54.350;10.102;2023-07-24T00:22:37;18.30;99.90
6293;DHT22;3179;54.350;10.102;2023-07-24T00:25:05;18.30;99.90
6293;DHT22;3179;54.350;10.102;2023-07-24T00:27:32;18.30;99.90
6293;DHT22;3179;54.350;10.102;2023-07-24T00:29:59;18.30;99.90
6293;DHT22;3179;54.350;10.102;2023-07-24T00:32:26;18.30;99.90
6293;DHT22;3179;54.350;10.102;2023-07-24T00:34:52;18.30;99.90
6293;DHT22;3179;54.350;10.102;2023-07-24T00:37:19;18.30;99.90
6293;DHT22;3179;54.350;10.102;2023-07-24T00:39:46;18.30;99.90
6293;DHT22;3179;54.350;10.102;2023-07-24T00:42:14;18.30;99.90
6293;DHT22;3179;54.350;10.102;2023-07-24T00:44:41;18.30;99.90
6293;DHT22;3179;54.350;10.102;2023-07-24T00:47:08;18.30;99.90
6293;DHT22;3179;54.350;10.102;2023-07-24T00:49:35;18.30;99.90
6293;DHT22;3179;54.350;10.102;2023-07-24T00:52:02;18.30;99.90
6293;DHT22;3179;54.350;10.102;2023-07-24T00:54:31;18.30;99.90
6293;DHT22;3179;54.350;10.102;2023-07-24T00:56:59;18.30;99.90
6293;DHT22;3179;54.350;10.102;2023-07-24T00:59:27;18.30;99.90
6293;DHT22;3179;54.350;10.102;2023-07-24T01:01:54;18.30;99.90
6293;DHT22;3179;54.350;10.102;2023-07-24T01:04:22;18.30;99.90
6293;DHT22;3179;54.350;10.102;2023-07-24T01:06:49;18.30;99.90
6293;DHT22;3179;54.350;10.102;2023-07-24T01:09:15;18.30;99.90
6293;DHT22;3179;54.350;10.102;2023-07-24T01:11:46;18.30;99.90
6293;DHT22;3179;54.350;10.102;2023-07-24T01:14:19;18.40;99.90
6293;DHT22;3179;54.350;10.102;2023-07-24T01:16:49;18.30;99.90
6293;DHT22;3179;54.350;10.102;2023-07-24T01:19:21;18.30;99.90
6293;DHT22;3179;54.350;10.102;2023-07-24T01:22:12;18.30;99.90
6293;DHT22;3179;54.350;10.102;2023-07-24T01:24:52;18.30;99.90
6293;DHT22;3179;54.350;10.102;2023-07-24T01:27:23;18.30;99.90
6293;DHT22;3179;54.350;10.102;2023-07-24T01:29:50;18.30;99.90
6293;DHT22;3179;54.350;10.102;2023-07-24T01:32:17;18.30;99.90
6293;DHT22;3179;54.350;10.102;2023-07-24T01:34:44;18.30;99.90
6293;DHT22;3179;54.350;10.102;2023-07-24T01:37:12;18.30;99.90
6293;DHT22;3179;54.350;10.102;2023-07-24T01:39:40;18.30;99.90
6293;DHT22;3179;54.350;10.102;2023-07-24T01:42:08;18.30;99.90
6293;DHT22;3179;54.350;10.102;2023-07-24T01:44:36;18.30;99.90
6293;DHT22;3179;54.350;10.102;2023-07-24T01:47:03;18.30;99.90
6293;DHT22;3179;54.350;10.102;2023-07-24T01:49:30;18.30;99.90
6293;DHT22;3179;54.350;10.102;2023-07-24T01:51:57;18.30;99.90
6293;DHT22;3179;54.350;10.102;2023-07-24T01:54:24;18.30;99.90
6293;DHT22;3179;54.350;10.102;2023-07-24T01:56:52;18.30;99.90
6293;DHT22;3179;54.350;10.102;2023-07-24T01:59:19;18.30;99.90
6293;DHT22;3179;54.350;10.102;2023-07-24T02:01:47;18.30;99.90
6293;DHT22;3179;54.350;10.102;2023-07-24T02:04:14;18.30;99.90
6293;DHT22;3179;54.350;10.102;2023-07-24T02:06:40;18.30;99.90
6293;DHT22;3179;54.350;10.102;2023-07-24T02:09:07;18.30;99.90
6293;DHT22;3179;54.350;10.102;2023-07-24T02:11:34;18.30;99.90
6293;DHT22;3179;54.350;10.102;2023-07-24T02:14:00;18.30;99.90
6293;DHT22;3179;54.350;10.102;2023-07-24T02:16:27;18.30;99.90
6293;DHT22;3179;54.350;10.102;2023-07-24T02:18:55;18.30;99.90
6293;DHT22;3179;54.350;10.102;2023-07-24T02:21:22;18.30;99.90
6293;DHT22;3179;54.350;10.102;2023-07-24T02:23:49;18.30;99.90
6293;DHT22;3179;54.350;10.102;2023-07-24T02:26:16;18.30;99.90
6293;DHT22;3179;54.350;10.102;2023-07-24T02:28:42;18.30;99.90
6293;DHT22;3179;54.350;10.102;2023-07-24T02:31:09;18.40;99.90
6293;DHT22;3179;54.350;10.102;2023-07-24T02:33:36;18.30;99.90
6293;DHT22;3179;54.350;10.102;2023-07-24T02:36:04;18.30;99.90
6293;DHT22;3179;54.350;10.102;2023-07-24T02:38:31;18.40;99.90
6293;DHT22;3179;54.350;10.102;2023-07-24T02:40:58;18.40;99.90
6293;DHT22;3179;54.350;10.102;2023-07-24T02:43:24;18.40;99.90
6293;DHT22;3179;54.350;10.102;2023-07-24T02:45:51;18.40;99.90
6293;DHT22;3179;54.350;10.102;2023-07-24T02:48:18;18.40;99.90
6293;DHT22;3179;54.350;10.102;2023-07-24T02:50:47;18.40;99.90
6293;DHT22;3179;54.350;10.102;2023-07-24T02:53:15;18.40;99.90
6293;DHT22;3179;54.350;10.102;2023-07-24T02:55:42;18.40;99.90
6293;DHT22;3179;54.350;10.102;2023-07-24T02:58:10;18.40;99.90
6293;DHT22;3179;54.350;10.102;2023-07-24T03:00:36;18.40;99.90
6293;DHT22;3179;54.350;10.102;2023-07-24T03:03:03;18.40;99.90
6293;DHT22;3179;54.350;10.102;2023-07-24T03:05:30;18.40;99.90
6293;DHT22;3179;54.350;10.102;2023-07-24T03:07:57;18.40;99.90
6293;DHT22;3179;54.350;10.102;2023-07-24T03:10:25;18.50;99.90
6293;DHT22;3179;54.350;10.102;2023-07-24T03:12:52;18.50;99.90
6293;DHT22;3179;54.350;10.102;2023-07-24T03:15:19;18.50;99.90
6293;DHT22;3179;54.350;10.102;2023-07-24T03:17:45;18.50;99.90
6293;DHT22;3179;54.350;10.102;2023-07-24T03:20:15;18.50;99.90
6293;DHT22;3179;54.350;10.102;2023-07-24T03:22:42;18.50;99.90
6293;DHT22;3179;54.350;10.102;2023-07-24T03:25:09;18.50;99.90
6293;DHT22;3179;54.350;10.102;2023-07-24T03:27:37;18.50;99.90
6293;DHT22;3179;54.350;10.102;2023-07-24T03:30:05;18.50;99.90
6293;DHT22;3179;54.350;10.102;2023-07-24T03:32:32;18.50;99.90
6293;DHT22;3179;54.350;10.102;2023-07-24T03:34:59;18.50;99.90
6293;DHT22;3179;54.350;10.102;2023-07-24T03:37:25;18.50;99.90
6293;DHT22;3179;54.350;10.102;2023-07-24T03:39:52;18.50;99.90
6293;DHT22;3179;54.350;10.102;2023-07-24T03:42:26;18.50;99.90
6293;DHT22;3179;54.350;10.102;2023-07-24T03:44:55;18.50;99.90
6293;DHT22;3179;54.350;10.102;2023-07-24T03:47:23;18.50;99.90
6293;DHT22;3179;54.350;10.102;2023-07-24T03:49:50;18.50;99.90
6293;DHT22;3179;54.350;10.102;2023-07-24T03:52:16;18.50;99.90
6293;DHT22;3179;54.350;10.102;2023-07-24T03:54:43;18.60;99.90
6293;DHT22;3179;54.350;10.102;2023-07-24T03:57:10;18.60;99.90
6293;DHT22;3179;54.350;10.102;2023-07-24T03:59:37;18.60;99.90
6293;DHT22;3179;54.350;10.102;2023-07-24T04:02:05;18.60;99.90
6293;DHT22;3179;54.350;10.102;2023-07-24T04:04:32;18.60;99.90
6293;DHT22;3179;54.350;10.102;2023-07-24T04:06:59;18.60;99.90
6293;DHT22;3179;54.350;10.102;2023-07-24T04:09:26;18.60;99.90
6293;DHT22;3179;54.350;10.102;2023-07-24T04:11:53;18.60;99.90
6293;DHT22;3179;54.350;10.102;2023-07-24T04:14:20;18.60;99.90
6293;DHT22;3179;54.350;10.102;2023-07-24T04:16:46;18.60;99.90
6293;DHT22;3179;54.350;10.102;2023-07-24T04:19:15;18.60;99.90
6293;DHT22;3179;54.350;10.102;2023-07-24T04:21:41;18.60;99.90
6293;DHT22;3179;54.350;10.102;2023-07-24T04:24:08;18.60;99.90
6293;DHT22;3179;54.350;10.102;2023-07-24T04:26:35;18.60;99.90
6293;DHT22;3179;54.350;10.102;2023-07-24T04:29:02;18.60;99.90
6293;DHT22;3179;54.350;10.102;2023-07-24T04:31:28;18.60;99.90
6293;DHT22;3179;54.350;10.102;2023-07-24T04:33:55;18.60;99.90
6293;DHT22;3179;54.350;10.102;2023-07-24T04:36:23;18.60;99.90
6293;DHT22;3179;54.350;10.102;2023-07-24T04:38:50;18.60;99.90
6293;DHT22;3179;54.350;10.102;2023-07-24T04:41:17;18.60;99.90
6293;DHT22;3179;54.350;10.102;2023-07-24T04:43:43;18.60;99.90
6293;DHT22;3179;54.350;10.102;2023-07-24T04:46:10;18.60;99.90
6293;DHT22;3179;54.350;10.102;2023-07-24T04:48:37;18.60;99.90
6293;DHT22;3179;54.350;10.102;2023-07-24T04:51:04;18.60;99.90
6293;DHT22;3179;54.350;10.102;2023-07-24T04:53:32;18.60;99.90
6293;DHT22;3179;54.350;10.102;2023-07-24T04:55:58;18.60;99.90
6293;DHT22;3179;54.350;10.102;2023-07-24T04:58:25;18.60;99.90
6293;DHT22;3179;54.350;10.102;2023-07-24T05:00:52;18.70;99.90
6293;DHT22;3179;54.350;10.102;2023-07-24T05:03:19;18.70;99.90
6293;DHT22;3179;54.350;10.102;2023-07-24T05:05:48;18.70;99.90
6293;DHT22;3179;54.350;10.102;2023-07-24T05:08:15;18.70;99.90
6293;DHT22;3179;54.350;10.102;2023-07-24T05:10:43;18.70;99.90
6293;DHT22;3179;54.350;10.102;2023-07-24T05:13:10;18.70;99.90
6293;DHT22;3179;54.350;10.102;2023-07-24T05:15:36;18.70;99.90
6293;DHT22;3179;54.350;10.102;2023-07-24T05:18:03;18.80;99.90
6293;DHT22;3179;54.350;10.102;2023-07-24T05:20:30;18.80;99.90
6293;DHT22;3179;54.350;10.102;2023-07-24T05:22:56;18.80;99.90
6293;DHT22;3179;54.350;10.102;2023-07-24T05:25:23;18.80;99.90
6293;DHT22;3179;54.350;10.102;2023-07-24T05:27:51;18.80;99.90
6293;DHT22;3179;54.350;10.102;2023-07-24T05:30:18;18.80;99.90
6293;DHT22;3179;54.350;10.102;2023-07-24T05:32:45;18.80;99.90
6293;DHT22;3179;54.350;10.102;2023-07-24T05:35:11;18.80;99.90
6293;DHT22;3179;54.350;10.102;2023-07-24T05:37:38;18.90;99.90
6293;DHT22;3179;54.350;10.102;2023-07-24T05:40:06;18.80;99.90
6293;DHT22;3179;54.350;10.102;2023-07-24T05:42:33;18.80;99.90
6293;DHT22;3179;54.350;10.102;2023-07-24T05:45:07;18.80;99.90
6293;DHT22;3179;54.350;10.102;2023-07-24T05:47:34;18.90;99.90
6293;DHT22;3179;54.350;10.102;2023-07-24T05:50:00;18.80;99.90
6293;DHT22;3179;54.350;10.102;2023-07-24T05:52:27;18.80;99.90
6293;DHT22;3179;54.350;10.102;2023-07-24T05:54:55;18.80;99.90
6293;DHT22;3179;54.350;10.102;2023-07-24T05:57:21;18.80;99.90
6293;DHT22;3179;54.350;10.102;2023-07-24T05:59:48;18.80;99.90
6293;DHT22;3179;54.350;10.102;2023-07-24T06:02:17;18.80;99.90
6293;DHT22;3179;54.350;10.102;2023-07-24T06:04:44;18.80;99.90
6293;DHT22;3179;54.350;10.102;2023-07-24T06:07:11;18.80;99.90
6293;DHT22;3179;54.350;10.102;2023-07-24T06:09:37;18.90;99.90
6293;DHT22;3179;54.350;10.102;2023-07-24T06:12:05;18.90;99.90
6293;DHT22;3179;54.350;10.102;2023-07-24T06:14:32;18.80;99.90
6293;DHT22;3179;54.350;10.102;2023-07-24T06:16:58;18.90;99.90
6293;DHT22;3179;54.350;10.102;2023-07-24T06:19:26;18.90;99.90
6293;DHT22;3179;54.350;10.102;2023-07-24T06:21:53;18.90;99.90
6293;DHT22;3179;54.350;10.102;2023-07-24T06:24:20;18.90;99.90
6293;DHT22;3179;54.350;10.102;2023-07-24T06:26:48;18.90;99.90
6293;DHT22;3179;54.350;10.102;2023-07-24T06:29:15;18.90;99.90
6293;DHT22;3179;54.350;10.102;2023-07-24T06:31:42;18.90;99.90
6293;DHT22;3179;54.350;10.102;2023-07-24T06:34:09;18.90;99.90
6293;DHT22;3179;54.350;10.102;2023-07-24T06:36:37;19.00;99.90
6293;DHT22;3179;54.350;10.102;2023-07-24T06:39:04;19.00;99.90
6293;DHT22;3179;54.350;10.102;2023-07-24T06:41:30;19.00;99.90
6293;DHT22;3179;54.350;10.102;2023-07-24T06:43:57;19.00;99.90
6293;DHT22;3179;54.350;10.102;2023-07-24T06:46:24;19.00;99.90
6293;DHT22;3179;54.350;10.102;2023-07-24T06:48:51;19.00;99.90
6293;DHT22;3179;54.350;10.102;2023-07-24T06:51:18;19.00;99.90
6293;DHT22;3179;54.350;10.102;2023-07-24T06:53:46;19.00;99.90
6293;DHT22;3179;54.350;10.102;2023-07-24T06:56:12;19.00;99.90
6293;DHT22;3179;54.350;10.102;2023-07-24T06:58:39;19.00;99.90
6293;DHT22;3179;54.350;10.102;2023-07-24T07:01:06;19.00;99.90
6293;DHT22;3179;54.350;10.102;2023-07-24T07:03:33;19.00;99.90
6293;DHT22;3179;54.350;10.102;2023-07-24T07:06:01;19.00;99.90
6293;DHT22;3179;54.350;10.102;2023-07-24T07:08:28;19.00;99.90
6293;DHT22;3179;54.350;10.102;2023-07-24T07:10:57;19.00;99.90
6293;DHT22;3179;54.350;10.102;2023-07-24T07:13:24;19.00;99.90
6293;DHT22;3179;54.350;10.102;2023-07-24T07:15:51;19.00;99.90
6293;DHT22;3179;54.350;10.102;2023-07-24T07:18:18;19.00;99.90
6293;DHT22;3179;54.350;10.102;2023-07-24T07:20:45;19.00;99.90
6293;DHT22;3179;54.350;10.102;2023-07-24T07:23:13;19.10;99.90
6293;DHT22;3179;54.350;10.102;2023-07-24T07:25:40;19.00;99.90
6293;DHT22;3179;54.350;10.102;2023-07-24T07:28:10;19.10;99.90
6293;DHT22;3179;54.350;10.102;2023-07-24T07:30:36;19.00;99.90
6293;DHT22;3179;54.350;10.102;2023-07-24T07:33:03;19.10;99.90
6293;DHT22;3179;54.350;10.102;2023-07-24T07:35:31;19.10;99.90
6293;DHT22;3179;54.350;10.102;2023-07-24T07:37:58;19.10;99.90
6293;DHT22;3179;54.350;10.102;2023-07-24T07:40:25;19.20;99.90
6293;DHT22;3179;54.350;10.102;2023-07-24T07:42:52;19.30;99.90
6293;DHT22;3179;54.350;10.102;2023-07-24T07:45:20;19.30;99.90
6293;DHT22;3179;54.350;10.102;2023-07-24T07:47:47;19.30;99.90
6293;DHT22;3179;54.350;10.102;2023-07-24T07:50:14;19.30;99.90
6293;DHT22;3179;54.350;10.102;2023-07-24T07:52:41;19.40;99.90
6293;DHT22;3179;54.350;10.102;2023-07-24T07:55:08;19.40;99.90
6293;DHT22;3179;54.350;10.102;2023-07-24T07:57:36;19.50;99.90
6293;DHT22;3179;54.350;10.102;2023-07-24T08:00:04;19.40;99.90
6293;DHT22;3179;54.350;10.102;2023-07-24T08:02:32;19.40;99.90
6293;DHT22;3179;54.350;10.102;2023-07-24T08:05:00;19.40;99.90
6293;DHT22;3179;54.350;10.102;2023-07-24T08:07:27;19.40;99.90
6293;DHT22;3179;54.350;10.102;2023-07-24T08:09:53;19.40;99.90
6293;DHT22;3179;54.350;10.102;2023-07-24T08:12:21;19.40;99.90
6293;DHT22;3179;54.350;10.102;2023-07-24T08:14:48;19.40;99.90
6293;DHT22;3179;54.350;10.102;2023-07-24T08:17:15;19.40;99.90
6293;DHT22;3179;54.350;10.102;2023-07-24T08:19:43;19.40;99.90
6293;DHT22;3179;54.350;10.102;2023-07-24T08:22:10;19.40;99.90
6293;DHT22;3179;54.350;10.102;2023-07-24T08:24:37;19.40;99.90
6293;DHT22;3179;54.350;10.102;2023-07-24T08:27:04;19.40;99.90
6293;DHT22;3179;54.350;10.102;2023-07-24T08:29:31;19.50;99.90
6293;DHT22;3179;54.350;10.102;2023-07-24T08:31:58;19.50;99.90
6293;DHT22;3179;54.350;10.102;2023-07-24T08:34:25;19.40;99.90
6293;DHT22;3179;54.350;10.102;2023-07-24T08:36:53;19.50;99.90
6293;DHT22;3179;54.350;10.102;2023-07-24T08:39:20;19.50;99.90
6293;DHT22;3179;54.350;10.102;2023-07-24T08:41:47;19.50;99.90
6293;DHT22;3179;54.350;10.102;2023-07-24T08:44:13;19.50;99.90
6293;DHT22;3179;54.350;10.102;2023-07-24T08:46:41;19.50;99.90
6293;DHT22;3179;54.350;10.102;2023-07-24T08:49:11;19.50;99.90
6293;DHT22;3179;54.350;10.102;2023-07-24T08:51:40;19.60;99.90
6293;DHT22;3179;54.350;10.102;2023-07-24T08:54:09;19.50;99.90
6293;DHT22;3179;54.350;10.102;2023-07-24T08:56:37;19.50;99.90
6293;DHT22;3179;54.350;10.102;2023-07-24T08:59:05;19.60;99.90
6293;DHT22;3179;54.350;10.102;2023-07-24T09:01:32;19.60;99.90
6293;DHT22;3179;54.350;10.102;2023-07-24T09:03:59;19.60;99.90
6293;DHT22;3179;54.350;10.102;2023-07-24T09:06:26;19.70;99.90
6293;DHT22;3179;54.350;10.102;2023-07-24T09:08:54;19.70;99.90
6293;DHT22;3179;54.350;10.102;2023-07-24T09:11:22;19.70;99.90
6293;DHT22;3179;54.350;10.102;2023-07-24T09:13:49;19.80;99.90
6293;DHT22;3179;54.350;10.102;2023-07-24T09:16:23;19.80;99.90
6293;DHT22;3179;54.350;10.102;2023-07-24T09:18:51;19.90;99.90
6293;DHT22;3179;54.350;10.102;2023-07-24T09:21:28;19.90;99.90
6293;DHT22;3179;54.350;10.102;2023-07-24T09:23:55;20.00;99.90
6293;DHT22;3179;54.350;10.102;2023-07-24T09:26:23;20.00;99.90
6293;DHT22;3179;54.350;10.102;2023-07-24T09:28:53;20.10;99.90
6293;DHT22;3179;54.350;10.102;2023-07-24T09:31:20;20.00;99.90
6293;DHT22;3179;54.350;10.102;2023-07-24T09:33:47;20.00;99.90
6293;DHT22;3179;54.350;10.102;2023-07-24T09:36:14;20.10;99.90
6293;DHT22;3179;54.350;10.102;2023-07-24T09:38:41;20.20;99.90
6293;DHT22;3179;54.350;10.102;2023-07-24T09:41:08;20.30;99.90
6293;DHT22;3179;54.350;10.102;2023-07-24T09:43:36;20.40;99.90
6293;DHT22;3179;54.350;10.102;2023-07-24T09:46:04;20.40;99.90
6293;DHT22;3179;54.350;10.102;2023-07-24T09:48:32;20.40;99.90
6293;DHT22;3179;54.350;10.102;2023-07-24T09:51:00;20.30;99.90
6293;DHT22;3179;54.350;10.102;2023-07-24T09:53:32;20.30;99.90
6293;DHT22;3179;54.350;10.102;2023-07-24T09:56:02;20.30;99.90
6293;DHT22;3179;54.350;10.102;2023-07-24T09:58:32;20.30;99.90
6293;DHT22;3179;54.350;10.102;2023-07-24T10:01:02;20.30;99.90
6293;DHT22;3179;54.350;10.102;2023-07-24T10:03:30;20.30;99.90
6293;DHT22;3179;54.350;10.102;2023-07-24T10:05:57;20.30;99.90
6293;DHT22;3179;54.350;10.102;2023-07-24T10:08:24;20.30;99.90
6293;DHT22;3179;54.350;10.102;2023-07-24T10:10:51;20.40;99.90
6293;DHT22;3179;54.350;10.102;2023-07-24T10:13:21;20.50;99.90
6293;DHT22;3179;54.350;10.102;2023-07-24T10:15:48;20.60;99.90
6293;DHT22;3179;54.350;10.102;2023-07-24T10:18:17;20.80;99.90
6293;DHT22;3179;54.350;10.102;2023-07-24T10:20:44;21.00;99.90
6293;DHT22;3179;54.350;10.102;2023-07-24T10:23:16;21.20;99.90
6293;DHT22;3179;54.350;10.102;2023-07-24T10:25:45;21.30;99.90
6293;DHT22;3179;54.350;10.102;2023-07-24T10:28:12;21.30;99.90
6293;DHT22;3179;54.350;10.102;2023-07-24T10:30:42;21.20;99.90
6293;DHT22;3179;54.350;10.102;2023-07-24T10:33:11;21.20;99.90
6293;DHT22;3179;54.350;10.102;2023-07-24T10:35:44;21.10;99.90
6293;DHT22;3179;54.350;10.102;2023-07-24T10:38:13;21.00;99.90
6293;DHT22;3179;54.350;10.102;2023-07-24T10:40:45;21.10;99.90
6293;DHT22;3179;54.350;10.102;2023-07-24T10:43:28;21.40;99.90
6293;DHT22;3179;54.350;10.102;2023-07-24T10:45:55;21.70;99.90
6293;DHT22;3179;54.350;10.102;2023-07-24T10:48:25;21.80;99.90
6293;DHT22;3179;54.350;10.102;2023-07-24T10:50:53;22.00;99.90
6293;DHT22;3179;54.350;10.102;2023-07-24T10:53:22;22.20;99.90
6293;DHT22;3179;54.350;10.102;2023-07-24T10:55:50;22.50;99.90
6293;DHT22;3179;54.350;10.102;2023-07-24T10:58:17;22.50;99.90
6293;DHT22;3179;54.350;10.102;2023-07-24T11:00:45;22.50;99.90
6293;DHT22;3179;54.350;10.102;2023-07-24T11:03:13;22.50;99.90
6293;DHT22;3179;54.350;10.102;2023-07-24T11:05:40;22.50;99.90
6293;DHT22;3179;54.350;10.102;2023-07-24T11:08:10;22.40;99.90
6293;DHT22;3179;54.350;10.102;2023-07-24T11:10:44;22.30;99.90
6293;DHT22;3179;54.350;10.102;2023-07-24T11:13:13;22.20;99.90
6293;DHT22;3179;54.350;10.102;2023-07-24T11:15:39;22.00;99.90
6293;DHT22;3179;54.350;10.102;2023-07-24T11:18:06;21.90;99.90
6293;DHT22;3179;54.350;10.102;2023-07-24T11:20:37;22.00;99.90
6293;DHT22;3179;54.350;10.102;2023-07-24T11:23:04;22.30;99.90
6293;DHT22;3179;54.350;10.102;2023-07-24T11:25:32;22.50;99.90
6293;DHT22;3179;54.350;10.102;2023-07-24T11:27:59;22.70;99.90
6293;DHT22;3179;54.350;10.102;2023-07-24T11:30:25;22.80;99.90
6293;DHT22;3179;54.350;10.102;2023-07-24T11:32:52;22.70;99.90
6293;DHT22;3179;54.350;10.102;2023-07-24T11:35:19;22.50;99.90
6293;DHT22;3179;54.350;10.102;2023-07-24T11:37:48;22.30;99.90
6293;DHT22;3179;54.350;10.102;2023-07-24T11:40:14;22.20;99.90
6293;DHT22;3179;54.350;10.102;2023-07-24T11:42:44;22.00;99.90
6293;DHT22;3179;54.350;10.102;2023-07-24T11:45:11;22.00;99.90
6293;DHT22;3179;54.350;10.102;2023-07-24T11:47:42;22.00;99.90
6293;DHT22;3179;54.350;10.102;2023-07-24T11:50:09;21.90;99.90
6293;DHT22;3179;54.350;10.102;2023-07-24T11:52:40;22.00;99.90
6293;DHT22;3179;54.350;10.102;2023-07-24T11:55:09;22.20;99.90
6293;DHT22;3179;54.350;10.102;2023-07-24T11:57:35;22.40;99.90
6293;DHT22;3179;54.350;10.102;2023-07-24T12:00:06;22.30;99.90
6293;DHT22;3179;54.350;10.102;2023-07-24T12:02:33;22.40;99.90
6293;DHT22;3179;54.350;10.102;2023-07-24T12:05:00;22.60;99.90
6293;DHT22;3179;54.350;10.102;2023-07-24T12:07:32;22.60;99.90
6293;DHT22;3179;54.350;10.102;2023-07-24T12:10:00;22.50;99.90
6293;DHT22;3179;54.350;10.102;2023-07-24T12:12:40;22.40;99.90
6293;DHT22;3179;54.350;10.102;2023-07-24T12:15:09;22.20;99.90
6293;DHT22;3179;54.350;10.102;2023-07-24T12:17:36;22.10;99.90
6293;DHT22;3179;54.350;10.102;2023-07-24T12:20:04;22.00;99.90
6293;DHT22;3179;54.350;10.102;2023-07-24T12:22:31;21.90;99.90
6293;DHT22;3179;54.350;10.102;2023-07-24T12:24:58;21.80;99.90
6293;DHT22;3179;54.350;10.102;2023-07-24T12:27:25;21.80;99.90
6293;DHT22;3179;54.350;10.102;2023-07-24T12:29:52;21.70;99.90
6293;DHT22;3179;54.350;10.102;2023-07-24T12:32:20;21.70;99.90
6293;DHT22;3179;54.350;10.102;2023-07-24T12:34:49;21.70;99.90
6293;DHT22;3179;54.350;10.102;2023-07-24T12:37:16;21.70;99.90
6293;DHT22;3179;54.350;10.102;2023-07-24T12:39:43;21.60;99.90
6293;DHT22;3179;54.350;10.102;2023-07-24T12:42:10;21.60;99.90
6293;DHT22;3179;54.350;10.102;2023-07-24T12:44:37;21.60;99.90
6293;DHT22;3179;54.350;10.102;2023-07-24T12:47:05;21.60;99.90
6293;DHT22;3179;54.350;10.102;2023-07-24T12:49:33;21.60;99.90
6293;DHT22;3179;54.350;10.102;2023-07-24T12:52:00;21.60;99.90
6293;DHT22;3179;54.350;10.102;2023-07-24T12:54:27;21.70;99.90
6293;DHT22;3179;54.350;10.102;2023-07-24T12:56:54;21.80;99.90
6293;DHT22;3179;54.350;10.102;2023-07-24T12:59:21;22.00;99.90
6293;DHT22;3179;54.350;10.102;2023-07-24T13:01:47;22.30;99.90
6293;DHT22;3179;54.350;10.102;2023-07-24T13:04:14;22.70;99.90
6293;DHT22;3179;54.350;10.102;2023-07-24T13:06:42;23.00;99.90
6293;DHT22;3179;54.350;10.102;2023-07-24T13:09:10;23.20;99.90
6293;DHT22;3179;54.350;10.102;2023-07-24T13:11:36;23.40;99.90
6293;DHT22;3179;54.350;10.102;2023-07-24T13:14:03;23.60;99.90
6293;DHT22;3179;54.350;10.102;2023-07-24T13:16:30;23.80;99.90
6293;DHT22;3179;54.350;10.102;2023-07-24T13:18:57;23.90;99.90
6293;DHT22;3179;54.350;10.102;2023-07-24T13:21:23;24.00;99.90
6293;DHT22;3179;54.350;10.102;2023-07-24T13:23:51;24.20;99.90
6293;DHT22;3179;54.350;10.102;2023-07-24T13:26:18;24.40;99.90
6293;DHT22;3179;54.350;10.102;2023-07-24T13:28:45;24.50;99.90
6293;DHT22;3179;54.350;10.102;2023-07-24T13:31:13;24.50;99.90
6293;DHT22;3179;54.350;10.102;2023-07-24T13:33:40;24.30;99.90
6293;DHT22;3179;54.350;10.102;2023-07-24T13:36:07;24.00;99.90
6293;DHT22;3179;54.350;10.102;2023-07-24T13:38:33;23.80;99.90
6293;DHT22;3179;54.350;10.102;2023-07-24T13:41:02;23.60;99.90
6293;DHT22;3179;54.350;10.102;2023-07-24T13:43:30;23.50;99.90
6293;DHT22;3179;54.350;10.102;2023-07-24T13:45:57;23.50;99.90
6293;DHT22;3179;54.350;10.102;2023-07-24T13:48:26;23.60;99.90
6293;DHT22;3179;54.350;10.102;2023-07-24T13:50:53;23.90;99.90
6293;DHT22;3179;54.350;10.102;2023-07-24T13:57:17;24.60;99.90
6293;DHT22;3179;54.350;10.102;2023-07-24T13:59:44;24.70;99.90
6293;DHT22;3179;54.350;10.102;2023-07-24T14:02:11;24.50;99.90
6293;DHT22;3179;54.350;10.102;2023-07-24T14:04:38;24.30;99.90
6293;DHT22;3179;54.350;10.102;2023-07-24T14:07:05;24.10;99.90
6293;DHT22;3179;54.350;10.102;2023-07-24T14:09:32;23.90;99.90
6293;DHT22;3179;54.350;10.102;2023-07-24T14:12:00;23.70;99.90
6293;DHT22;3179;54.350;10.102;2023-07-24T14:14:28;23.60;99.90
6293;DHT22;3179;54.350;10.102;2023-07-24T14:16:55;23.50;99.90
6293;DHT22;3179;54.350;10.102;2023-07-24T14:19:22;23.40;99.90
6293;DHT22;3179;54.350;10.102;2023-07-24T14:21:50;23.30;99.90
6293;DHT22;3179;54.350;10.102;2023-07-24T14:24:17;23.40;99.90
6293;DHT22;3179;54.350;10.102;2023-07-24T14:26:43;23.50;99.90
6293;DHT22;3179;54.350;10.102;2023-07-24T14:29:11;23.70;99.90
6293;DHT22;3179;54.350;10.102;2023-07-24T14:31:39;23.70;99.90
6293;DHT22;3179;54.350;10.102;2023-07-24T14:34:06;23.70;99.90
6293;DHT22;3179;54.350;10.102;2023-07-24T14:36:36;23.90;99.90
6293;DHT22;3179;54.350;10.102;2023-07-24T14:39:03;24.20;99.90
6293;DHT22;3179;54.350;10.102;2023-07-24T14:41:30;24.20;99.90
6293;DHT22;3179;54.350;10.102;2023-07-24T14:43:57;24.20;99.90
6293;DHT22;3179;54.350;10.102;2023-07-24T14:46:23;24.20;99.90
6293;DHT22;3179;54.350;10.102;2023-07-24T14:48:51;24.20;99.90
6293;DHT22;3179;54.350;10.102;2023-07-24T14:51:18;24.20;99.90
6293;DHT22;3179;54.350;10.102;2023-07-24T14:53:45;24.10;99.90
6293;DHT22;3179;54.350;10.102;2023-07-24T14:56:12;23.90;99.90
6293;DHT22;3179;54.350;10.102;2023-07-24T14:58:38;23.90;99.90
6293;DHT22;3179;54.350;10.102;2023-07-24T15:01:07;23.80;99.90
6293;DHT22;3179;54.350;10.102;2023-07-24T15:03:34;23.90;99.90
6293;DHT22;3179;54.350;10.102;2023-07-24T15:06:02;24.10;99.90
6293;DHT22;3179;54.350;10.102;2023-07-24T15:08:32;24.30;99.90
6293;DHT22;3179;54.350;10.102;2023-07-24T15:10:58;24.40;99.90
6293;DHT22;3179;54.350;10.102;2023-07-24T15:13:25;24.40;99.90
6293;DHT22;3179;54.350;10.102;2023-07-24T15:15:52;24.40;99.90
6293;DHT22;3179;54.350;10.102;2023-07-24T15:18:19;24.30;99.90
6293;DHT22;3179;54.350;10.102;2023-07-24T15:20:45;24.20;99.90
6293;DHT22;3179;54.350;10.102;2023-07-24T15:23:14;24.20;99.90
6293;DHT22;3179;54.350;10.102;2023-07-24T15:25:40;24.00;99.90
6293;DHT22;3179;54.350;10.102;2023-07-24T15:28:07;23.90;99.90
6293;DHT22;3179;54.350;10.102;2023-07-24T15:30:34;23.80;99.90
6293;DHT22;3179;54.350;10.102;2023-07-24T15:33:01;23.60;99.90
6293;DHT22;3179;54.350;10.102;2023-07-24T15:35:28;23.50;99.90
6293;DHT22;3179;54.350;10.102;2023-07-24T15:37:54;23.40;99.90
6293;DHT22;3179;54.350;10.102;2023-07-24T15:40:23;23.40;99.90
6293;DHT22;3179;54.350;10.102;2023-07-24T15:42:49;23.30;99.90
6293;DHT22;3179;54.350;10.102;2023-07-24T15:45:16;23.20;99.90
6293;DHT22;3179;54.350;10.102;2023-07-24T15:47:43;23.10;99.90
6293;DHT22;3179;54.350;10.102;2023-07-24T15:50:10;23.00;99.90